sensor_id;sensor_type;location;lat;lon;timestamp;P1;durP1;ratioP1;P2;durP2;ratioP2
23596;SDS011;40226;50.874;4.394;2022-10-31T00:01:59;23.50;;;11.73;;
23596;SDS011;40226;50.874;4.394;2022-10-31T00:04:25;19.75;;;10.85;;
23596;SDS011;40226;50.874;4.394;2022-10-31T00:06:50;22.45;;;11.07;;
23596;SDS011;40226;50.874;4.394;2022-10-31T00:09:16;19.75;;;10.82;;
23596;SDS011;40226;50.874;4.394;2022-10-31T00:11:41;18.35;;;10.95;;
23596;SDS011;40226;50.874;4.394;2022-10-31T00:14:07;22.20;;;11.27;;
23596;SDS011;40226;50.874;4.394;2022-10-31T00:16:32;22.33;;;11.45;;
23596;SDS011;40226;50.874;4.394;2022-10-31T00:18:59;23.85;;;12.10;;
23596;SDS011;40226;50.874;4.394;2022-10-31T00:21:26;20.65;;;12.93;;
23596;SDS011;40226;50.874;4.394;2022-10-31T00:23:53;20.20;;;11.60;;
23596;SDS011;40226;50.874;4.394;2022-10-31T00:26:19;26.30;;;13.20;;
23596;SDS011;40226;50.874;4.394;2022-10-31T00:28:45;21.63;;;12.48;;
23596;SDS011;40226;50.874;4.394;2022-10-31T00:31:12;24.10;;;13.93;;
23596;SDS011;40226;50.874;4.394;2022-10-31T00:33:38;26.38;;;13.38;;
23596;SDS011;40226;50.874;4.394;2022-10-31T00:36:05;25.58;;;14.02;;
23596;SDS011;40226;50.874;4.394;2022-10-31T00:38:32;26.73;;;14.82;;
23596;SDS011;40226;50.874;4.394;2022-10-31T00:40:57;20.80;;;13.90;;
23596;SDS011;40226;50.874;4.394;2022-10-31T00:43:23;24.13;;;14.65;;
23596;SDS011;40226;50.874;4.394;2022-10-31T00:45:49;26.27;;;14.45;;
23596;SDS011;40226;50.874;4.394;2022-10-31T00:48:15;26.50;;;14.38;;
23596;SDS011;40226;50.874;4.394;2022-10-31T00:50:41;28.33;;;14.07;;
23596;SDS011;40226;50.874;4.394;2022-10-31T00:53:06;30.00;;;15.20;;
23596;SDS011;40226;50.874;4.394;2022-10-31T00:55:32;28.15;;;15.10;;
23596;SDS011;40226;50.874;4.394;2022-10-31T00:57:58;28.42;;;15.18;;
23596;SDS011;40226;50.874;4.394;2022-10-31T01:00:24;27.35;;;14.13;;
23596;SDS011;40226;50.874;4.394;2022-10-31T01:02:50;21.88;;;13.65;;
23596;SDS011;40226;50.874;4.394;2022-10-31T01:05:16;31.42;;;12.95;;
23596;SDS011;40226;50.874;4.394;2022-10-31T01:07:42;23.95;;;13.63;;
23596;SDS011;40226;50.874;4.394;2022-10-31T01:10:08;27.77;;;13.82;;
23596;SDS011;40226;50.874;4.394;2022-10-31T01:12:42;22.80;;;12.55;;
23596;SDS011;40226;50.874;4.394;2022-10-31T01:15:10;23.67;;;13.23;;
23596;SDS011;40226;50.874;4.394;2022-10-31T01:17:37;26.67;;;12.95;;
23596;SDS011;40226;50.874;4.394;2022-10-31T01:20:04;23.73;;;11.80;;
23596;SDS011;40226;50.874;4.394;2022-10-31T01:22:32;21.75;;;11.90;;
23596;SDS011;40226;50.874;4.394;2022-10-31T01:24:57;23.55;;;11.43;;
23596;SDS011;40226;50.874;4.394;2022-10-31T01:27:23;20.90;;;11.35;;
23596;SDS011;40226;50.874;4.394;2022-10-31T01:29:48;21.45;;;10.73;;
23596;SDS011;40226;50.874;4.394;2022-10-31T01:32:14;20.77;;;10.68;;
23596;SDS011;40226;50.874;4.394;2022-10-31T01:34:40;16.27;;;10.85;;
23596;SDS011;40226;50.874;4.394;2022-10-31T01:37:05;20.20;;;10.90;;
23596;SDS011;40226;50.874;4.394;2022-10-31T01:39:31;19.27;;;10.65;;
23596;SDS011;40226;50.874;4.394;2022-10-31T01:41:56;19.88;;;10.55;;
23596;SDS011;40226;50.874;4.394;2022-10-31T01:49:23;17.40;;;9.80;;
23596;SDS011;40226;50.874;4.394;2022-10-31T01:51:50;24.65;;;10.25;;
23596;SDS011;40226;50.874;4.394;2022-10-31T01:54:20;16.33;;;9.68;;
23596;SDS011;40226;50.874;4.394;2022-10-31T01:56:49;19.23;;;10.65;;
23596;SDS011;40226;50.874;4.394;2022-10-31T01:59:19;17.80;;;10.43;;
23596;SDS011;40226;50.874;4.394;2022-10-31T02:01:46;18.42;;;10.15;;
23596;SDS011;40226;50.874;4.394;2022-10-31T02:04:14;20.70;;;10.25;;
23596;SDS011;40226;50.874;4.394;2022-10-31T02:06:42;19.35;;;10.02;;
23596;SDS011;40226;50.874;4.394;2022-10-31T02:09:13;19.70;;;9.93;;
23596;SDS011;40226;50.874;4.394;2022-10-31T02:11:40;21.95;;;9.30;;
23596;SDS011;40226;50.874;4.394;2022-10-31T02:14:07;18.95;;;9.98;;
23596;SDS011;40226;50.874;4.394;2022-10-31T02:16:32;17.33;;;9.70;;
23596;SDS011;40226;50.874;4.394;2022-10-31T02:18:58;18.20;;;8.93;;
23596;SDS011;40226;50.874;4.394;2022-10-31T02:35:08;18.10;;;9.77;;
23596;SDS011;40226;50.874;4.394;2022-10-31T02:44:14;22.48;;;10.75;;
23596;SDS011;40226;50.874;4.394;2022-10-31T02:49:11;22.35;;;11.38;;
23596;SDS011;40226;50.874;4.394;2022-10-31T02:51:52;20.65;;;10.13;;
23596;SDS011;40226;50.874;4.394;2022-10-31T02:54:18;21.75;;;11.45;;
23596;SDS011;40226;50.874;4.394;2022-10-31T02:56:50;19.33;;;11.48;;
23596;SDS011;40226;50.874;4.394;2022-10-31T02:59:22;23.47;;;11.27;;
23596;SDS011;40226;50.874;4.394;2022-10-31T03:02:35;20.85;;;11.63;;
23596;SDS011;40226;50.874;4.394;2022-10-31T03:04:51;21.77;;;11.50;;
23596;SDS011;40226;50.874;4.394;2022-10-31T03:07:25;22.98;;;11.98;;
23596;SDS011;40226;50.874;4.394;2022-10-31T03:10:14;18.73;;;11.77;;
23596;SDS011;40226;50.874;4.394;2022-10-31T03:13:01;19.08;;;12.13;;
23596;SDS011;40226;50.874;4.394;2022-10-31T03:15:39;24.90;;;12.07;;
23596;SDS011;40226;50.874;4.394;2022-10-31T03:18:13;23.60;;;12.30;;
23596;SDS011;40226;50.874;4.394;2022-10-31T03:21:07;21.10;;;12.05;;
23596;SDS011;40226;50.874;4.394;2022-10-31T03:23:39;22.50;;;11.80;;
23596;SDS011;40226;50.874;4.394;2022-10-31T03:26:07;21.80;;;11.68;;
23596;SDS011;40226;50.874;4.394;2022-10-31T03:28:36;23.85;;;11.77;;
23596;SDS011;40226;50.874;4.394;2022-10-31T03:31:05;22.17;;;11.93;;
23596;SDS011;40226;50.874;4.394;2022-10-31T03:33:34;21.55;;;11.80;;
23596;SDS011;40226;50.874;4.394;2022-10-31T03:36:03;23.23;;;12.13;;
23596;SDS011;40226;50.874;4.394;2022-10-31T03:38:31;25.20;;;12.43;;
23596;SDS011;40226;50.874;4.394;2022-10-31T03:40:58;22.67;;;12.95;;
23596;SDS011;40226;50.874;4.394;2022-10-31T03:43:30;27.13;;;13.15;;
23596;SDS011;40226;50.874;4.394;2022-10-31T03:46:01;24.77;;;12.95;;
23596;SDS011;40226;50.874;4.394;2022-10-31T03:48:28;23.40;;;13.15;;
23596;SDS011;40226;50.874;4.394;2022-10-31T03:51:12;27.90;;;13.60;;
23596;SDS011;40226;50.874;4.394;2022-10-31T03:53:50;24.55;;;13.68;;
23596;SDS011;40226;50.874;4.394;2022-10-31T03:56:29;25.00;;;12.82;;
23596;SDS011;40226;50.874;4.394;2022-10-31T03:59:02;20.30;;;13.00;;
23596;SDS011;40226;50.874;4.394;2022-10-31T04:01:35;22.27;;;12.85;;
23596;SDS011;40226;50.874;4.394;2022-10-31T04:04:05;25.23;;;12.38;;
23596;SDS011;40226;50.874;4.394;2022-10-31T04:06:31;21.80;;;12.88;;
23596;SDS011;40226;50.874;4.394;2022-10-31T04:09:02;26.73;;;13.55;;
23596;SDS011;40226;50.874;4.394;2022-10-31T04:11:31;27.50;;;14.82;;
23596;SDS011;40226;50.874;4.394;2022-10-31T04:14:01;26.88;;;14.38;;
23596;SDS011;40226;50.874;4.394;2022-10-31T04:16:29;23.75;;;14.10;;
23596;SDS011;40226;50.874;4.394;2022-10-31T04:18:55;28.52;;;14.25;;
23596;SDS011;40226;50.874;4.394;2022-10-31T04:21:26;26.27;;;15.05;;
23596;SDS011;40226;50.874;4.394;2022-10-31T04:23:55;25.38;;;14.68;;
23596;SDS011;40226;50.874;4.394;2022-10-31T04:26:21;29.95;;;15.43;;
23596;SDS011;40226;50.874;4.394;2022-10-31T04:28:47;28.58;;;14.60;;
23596;SDS011;40226;50.874;4.394;2022-10-31T04:31:12;27.90;;;15.32;;
23596;SDS011;40226;50.874;4.394;2022-10-31T04:33:38;28.65;;;15.02;;
23596;SDS011;40226;50.874;4.394;2022-10-31T04:36:04;29.40;;;15.02;;
23596;SDS011;40226;50.874;4.394;2022-10-31T04:38:29;25.52;;;14.60;;
23596;SDS011;40226;50.874;4.394;2022-10-31T04:40:55;28.55;;;15.55;;
23596;SDS011;40226;50.874;4.394;2022-10-31T04:43:21;31.25;;;15.82;;
23596;SDS011;40226;50.874;4.394;2022-10-31T04:45:46;32.80;;;16.55;;
23596;SDS011;40226;50.874;4.394;2022-10-31T04:48:12;29.15;;;16.35;;
23596;SDS011;40226;50.874;4.394;2022-10-31T04:50:38;27.80;;;15.98;;
23596;SDS011;40226;50.874;4.394;2022-10-31T04:53:03;24.77;;;15.43;;
23596;SDS011;40226;50.874;4.394;2022-10-31T04:55:29;25.67;;;15.30;;
23596;SDS011;40226;50.874;4.394;2022-10-31T04:57:55;28.08;;;16.48;;
23596;SDS011;40226;50.874;4.394;2022-10-31T05:00:21;28.85;;;16.02;;
23596;SDS011;40226;50.874;4.394;2022-10-31T05:02:48;28.67;;;16.33;;
23596;SDS011;40226;50.874;4.394;2022-10-31T05:05:16;29.88;;;16.30;;
23596;SDS011;40226;50.874;4.394;2022-10-31T05:07:44;31.45;;;17.48;;
23596;SDS011;40226;50.874;4.394;2022-10-31T05:10:23;34.20;;;17.33;;
23596;SDS011;40226;50.874;4.394;2022-10-31T05:12:54;33.88;;;17.83;;
23596;SDS011;40226;50.874;4.394;2022-10-31T05:15:22;32.65;;;19.00;;
23596;SDS011;40226;50.874;4.394;2022-10-31T05:17:49;39.55;;;20.25;;
23596;SDS011;40226;50.874;4.394;2022-10-31T05:20:15;35.15;;;19.85;;
23596;SDS011;40226;50.874;4.394;2022-10-31T05:22:43;34.50;;;19.48;;
23596;SDS011;40226;50.874;4.394;2022-10-31T05:25:09;37.20;;;20.95;;
23596;SDS011;40226;50.874;4.394;2022-10-31T05:27:38;33.75;;;21.17;;
23596;SDS011;40226;50.874;4.394;2022-10-31T05:30:08;37.60;;;20.92;;
23596;SDS011;40226;50.874;4.394;2022-10-31T05:32:38;37.78;;;20.50;;
23596;SDS011;40226;50.874;4.394;2022-10-31T05:35:08;36.53;;;20.33;;
23596;SDS011;40226;50.874;4.394;2022-10-31T05:37:35;36.08;;;20.55;;
23596;SDS011;40226;50.874;4.394;2022-10-31T05:40:02;37.30;;;20.65;;
23596;SDS011;40226;50.874;4.394;2022-10-31T05:42:29;41.35;;;21.30;;
23596;SDS011;40226;50.874;4.394;2022-10-31T05:44:54;35.75;;;19.88;;
23596;SDS011;40226;50.874;4.394;2022-10-31T05:47:20;40.38;;;20.48;;
23596;SDS011;40226;50.874;4.394;2022-10-31T05:49:45;35.78;;;20.52;;
23596;SDS011;40226;50.874;4.394;2022-10-31T05:52:11;36.58;;;20.77;;
23596;SDS011;40226;50.874;4.394;2022-10-31T05:54:36;36.03;;;20.10;;
23596;SDS011;40226;50.874;4.394;2022-10-31T05:57:02;36.80;;;19.98;;
23596;SDS011;40226;50.874;4.394;2022-10-31T05:59:28;36.00;;;19.80;;
23596;SDS011;40226;50.874;4.394;2022-10-31T06:01:53;35.28;;;19.70;;
23596;SDS011;40226;50.874;4.394;2022-10-31T06:04:19;36.88;;;19.85;;
23596;SDS011;40226;50.874;4.394;2022-10-31T06:06:44;35.60;;;20.45;;
23596;SDS011;40226;50.874;4.394;2022-10-31T06:09:10;34.38;;;20.83;;
23596;SDS011;40226;50.874;4.394;2022-10-31T06:11:36;31.80;;;19.23;;
23596;SDS011;40226;50.874;4.394;2022-10-31T06:14:02;34.95;;;20.33;;
23596;SDS011;40226;50.874;4.394;2022-10-31T06:16:27;31.55;;;19.38;;
23596;SDS011;40226;50.874;4.394;2022-10-31T06:18:53;41.22;;;21.02;;
23596;SDS011;40226;50.874;4.394;2022-10-31T06:21:19;40.90;;;20.38;;
23596;SDS011;40226;50.874;4.394;2022-10-31T06:23:44;40.00;;;20.58;;
23596;SDS011;40226;50.874;4.394;2022-10-31T06:26:10;38.60;;;20.45;;
23596;SDS011;40226;50.874;4.394;2022-10-31T06:28:35;36.05;;;20.75;;
23596;SDS011;40226;50.874;4.394;2022-10-31T06:31:01;36.25;;;20.05;;
23596;SDS011;40226;50.874;4.394;2022-10-31T06:33:26;31.63;;;19.85;;
23596;SDS011;40226;50.874;4.394;2022-10-31T06:35:52;36.58;;;20.48;;
23596;SDS011;40226;50.874;4.394;2022-10-31T06:38:17;34.92;;;19.17;;
23596;SDS011;40226;50.874;4.394;2022-10-31T06:40:43;34.70;;;18.77;;
23596;SDS011;40226;50.874;4.394;2022-10-31T06:43:09;30.77;;;19.35;;
23596;SDS011;40226;50.874;4.394;2022-10-31T06:45:38;33.75;;;19.65;;
23596;SDS011;40226;50.874;4.394;2022-10-31T06:48:03;34.33;;;19.17;;
23596;SDS011;40226;50.874;4.394;2022-10-31T06:50:29;36.60;;;20.15;;
23596;SDS011;40226;50.874;4.394;2022-10-31T06:52:56;34.22;;;19.40;;
23596;SDS011;40226;50.874;4.394;2022-10-31T06:55:23;35.00;;;18.95;;
23596;SDS011;40226;50.874;4.394;2022-10-31T06:57:52;34.28;;;18.40;;
23596;SDS011;40226;50.874;4.394;2022-10-31T07:00:19;32.92;;;18.00;;
23596;SDS011;40226;50.874;4.394;2022-10-31T07:03:02;28.85;;;18.30;;
23596;SDS011;40226;50.874;4.394;2022-10-31T07:05:30;30.95;;;18.88;;
23596;SDS011;40226;50.874;4.394;2022-10-31T07:07:57;31.67;;;19.10;;
23596;SDS011;40226;50.874;4.394;2022-10-31T07:10:24;35.00;;;19.55;;
23596;SDS011;40226;50.874;4.394;2022-10-31T07:12:58;30.13;;;18.08;;
23596;SDS011;40226;50.874;4.394;2022-10-31T07:17:51;28.33;;;18.17;;
23596;SDS011;40226;50.874;4.394;2022-10-31T07:20:16;30.70;;;18.40;;
23596;SDS011;40226;50.874;4.394;2022-10-31T07:22:44;38.10;;;19.90;;
23596;SDS011;40226;50.874;4.394;2022-10-31T07:25:09;33.20;;;19.20;;
23596;SDS011;40226;50.874;4.394;2022-10-31T07:27:39;32.22;;;19.48;;
23596;SDS011;40226;50.874;4.394;2022-10-31T07:30:08;31.58;;;18.88;;
23596;SDS011;40226;50.874;4.394;2022-10-31T07:32:41;38.00;;;19.70;;
23596;SDS011;40226;50.874;4.394;2022-10-31T07:35:09;35.13;;;19.10;;
23596;SDS011;40226;50.874;4.394;2022-10-31T07:37:36;34.83;;;19.35;;
23596;SDS011;40226;50.874;4.394;2022-10-31T07:40:04;30.73;;;18.55;;
23596;SDS011;40226;50.874;4.394;2022-10-31T07:42:37;34.97;;;20.20;;
23596;SDS011;40226;50.874;4.394;2022-10-31T07:45:08;34.33;;;19.60;;
23596;SDS011;40226;50.874;4.394;2022-10-31T07:47:42;34.10;;;19.65;;
23596;SDS011;40226;50.874;4.394;2022-10-31T07:50:11;38.92;;;20.10;;
23596;SDS011;40226;50.874;4.394;2022-10-31T07:52:38;63.40;;;23.42;;
23596;SDS011;40226;50.874;4.394;2022-10-31T07:55:04;47.15;;;21.25;;
23596;SDS011;40226;50.874;4.394;2022-10-31T07:57:30;27.50;;;16.65;;
23596;SDS011;40226;50.874;4.394;2022-10-31T07:59:55;34.10;;;17.23;;
23596;SDS011;40226;50.874;4.394;2022-10-31T08:02:21;31.42;;;15.38;;
23596;SDS011;40226;50.874;4.394;2022-10-31T08:04:48;29.88;;;15.23;;
23596;SDS011;40226;50.874;4.394;2022-10-31T08:07:14;31.17;;;16.13;;
23596;SDS011;40226;50.874;4.394;2022-10-31T08:09:39;28.77;;;18.10;;
23596;SDS011;40226;50.874;4.394;2022-10-31T08:12:05;31.35;;;16.33;;
23596;SDS011;40226;50.874;4.394;2022-10-31T08:14:30;35.08;;;16.15;;
23596;SDS011;40226;50.874;4.394;2022-10-31T08:16:56;35.53;;;17.63;;
23596;SDS011;40226;50.874;4.394;2022-10-31T08:19:22;29.77;;;16.60;;
23596;SDS011;40226;50.874;4.394;2022-10-31T08:21:50;42.70;;;25.02;;
23596;SDS011;40226;50.874;4.394;2022-10-31T08:24:17;31.63;;;15.85;;
23596;SDS011;40226;50.874;4.394;2022-10-31T08:26:43;31.17;;;16.42;;
23596;SDS011;40226;50.874;4.394;2022-10-31T08:29:09;24.65;;;15.18;;
23596;SDS011;40226;50.874;4.394;2022-10-31T08:31:35;30.25;;;16.85;;
23596;SDS011;40226;50.874;4.394;2022-10-31T08:34:01;25.90;;;15.98;;
23596;SDS011;40226;50.874;4.394;2022-10-31T08:36:27;23.20;;;16.02;;
23596;SDS011;40226;50.874;4.394;2022-10-31T08:38:54;26.80;;;17.13;;
23596;SDS011;40226;50.874;4.394;2022-10-31T08:41:20;27.23;;;16.48;;
23596;SDS011;40226;50.874;4.394;2022-10-31T08:43:46;28.27;;;16.05;;
23596;SDS011;40226;50.874;4.394;2022-10-31T08:46:11;29.67;;;16.45;;
23596;SDS011;40226;50.874;4.394;2022-10-31T08:48:37;29.05;;;16.38;;
23596;SDS011;40226;50.874;4.394;2022-10-31T08:51:03;30.17;;;16.10;;
23596;SDS011;40226;50.874;4.394;2022-10-31T08:53:28;24.77;;;16.05;;
23596;SDS011;40226;50.874;4.394;2022-10-31T08:55:54;28.85;;;16.77;;
23596;SDS011;40226;50.874;4.394;2022-10-31T08:58:21;27.63;;;16.60;;
23596;SDS011;40226;50.874;4.394;2022-10-31T09:00:48;28.17;;;15.82;;
23596;SDS011;40226;50.874;4.394;2022-10-31T09:03:26;31.77;;;16.98;;
23596;SDS011;40226;50.874;4.394;2022-10-31T09:05:58;26.38;;;16.52;;
23596;SDS011;40226;50.874;4.394;2022-10-31T09:08:24;32.28;;;16.50;;
23596;SDS011;40226;50.874;4.394;2022-10-31T09:10:50;29.10;;;18.17;;
23596;SDS011;40226;50.874;4.394;2022-10-31T09:13:17;24.95;;;16.52;;
23596;SDS011;40226;50.874;4.394;2022-10-31T09:15:44;27.65;;;15.80;;
23596;SDS011;40226;50.874;4.394;2022-10-31T09:18:12;20.70;;;14.27;;
23596;SDS011;40226;50.874;4.394;2022-10-31T09:20:39;27.42;;;14.55;;
23596;SDS011;40226;50.874;4.394;2022-10-31T09:23:07;22.48;;;14.10;;
23596;SDS011;40226;50.874;4.394;2022-10-31T09:25:35;24.30;;;14.20;;
23596;SDS011;40226;50.874;4.394;2022-10-31T09:28:02;22.42;;;13.20;;
23596;SDS011;40226;50.874;4.394;2022-10-31T09:30:29;20.35;;;13.55;;
23596;SDS011;40226;50.874;4.394;2022-10-31T09:32:57;26.30;;;13.65;;
23596;SDS011;40226;50.874;4.394;2022-10-31T09:35:25;24.35;;;14.02;;
23596;SDS011;40226;50.874;4.394;2022-10-31T09:38:04;22.23;;;13.48;;
23596;SDS011;40226;50.874;4.394;2022-10-31T09:40:55;22.10;;;12.63;;
23596;SDS011;40226;50.874;4.394;2022-10-31T09:44:01;23.60;;;12.75;;
23596;SDS011;40226;50.874;4.394;2022-10-31T09:49:30;22.67;;;12.60;;
23596;SDS011;40226;50.874;4.394;2022-10-31T09:52:03;21.65;;;12.77;;
23596;SDS011;40226;50.874;4.394;2022-10-31T09:54:37;22.58;;;12.68;;
23596;SDS011;40226;50.874;4.394;2022-10-31T09:57:10;22.73;;;12.27;;
23596;SDS011;40226;50.874;4.394;2022-10-31T09:59:40;20.77;;;12.05;;
23596;SDS011;40226;50.874;4.394;2022-10-31T10:21:32;22.98;;;12.30;;
23596;SDS011;40226;50.874;4.394;2022-10-31T10:32:34;24.05;;;12.85;;
23596;SDS011;40226;50.874;4.394;2022-10-31T10:35:27;22.38;;;13.00;;
23596;SDS011;40226;50.874;4.394;2022-10-31T10:38:02;20.75;;;13.18;;
23596;SDS011;40226;50.874;4.394;2022-10-31T10:40:33;25.70;;;13.30;;
23596;SDS011;40226;50.874;4.394;2022-10-31T10:51:46;24.73;;;15.97;;
23596;SDS011;40226;50.874;4.394;2022-10-31T11:02:57;34.50;;;18.60;;
23596;SDS011;40226;50.874;4.394;2022-10-31T11:05:37;24.88;;;13.98;;
23596;SDS011;40226;50.874;4.394;2022-10-31T11:08:08;25.08;;;13.70;;
23596;SDS011;40226;50.874;4.394;2022-10-31T11:10:34;25.75;;;14.40;;
23596;SDS011;40226;50.874;4.394;2022-10-31T11:18:20;23.75;;;13.77;;
23596;SDS011;40226;50.874;4.394;2022-10-31T11:20:53;24.60;;;13.82;;
23596;SDS011;40226;50.874;4.394;2022-10-31T11:23:21;24.27;;;13.27;;
23596;SDS011;40226;50.874;4.394;2022-10-31T11:25:59;28.77;;;14.43;;
23596;SDS011;40226;50.874;4.394;2022-10-31T11:28:27;24.85;;;15.10;;
23596;SDS011;40226;50.874;4.394;2022-10-31T11:31:00;26.40;;;13.50;;
23596;SDS011;40226;50.874;4.394;2022-10-31T11:33:35;23.92;;;13.52;;
23596;SDS011;40226;50.874;4.394;2022-10-31T11:36:02;25.92;;;13.23;;
23596;SDS011;40226;50.874;4.394;2022-10-31T11:38:42;22.92;;;13.23;;
23596;SDS011;40226;50.874;4.394;2022-10-31T11:44:46;22.17;;;11.77;;
23596;SDS011;40226;50.874;4.394;2022-10-31T11:46:56;24.33;;;12.48;;
23596;SDS011;40226;50.874;4.394;2022-10-31T11:49:38;22.70;;;12.27;;
23596;SDS011;40226;50.874;4.394;2022-10-31T11:52:24;27.48;;;13.73;;
23596;SDS011;40226;50.874;4.394;2022-10-31T12:00:24;24.33;;;11.73;;
23596;SDS011;40226;50.874;4.394;2022-10-31T12:03:03;19.40;;;12.40;;
23596;SDS011;40226;50.874;4.394;2022-10-31T12:06:03;20.75;;;11.95;;
23596;SDS011;40226;50.874;4.394;2022-10-31T12:16:31;21.95;;;11.75;;
23596;SDS011;40226;50.874;4.394;2022-10-31T12:24:23;21.75;;;11.88;;
23596;SDS011;40226;50.874;4.394;2022-10-31T12:29:40;25.92;;;11.82;;
23596;SDS011;40226;50.874;4.394;2022-10-31T12:32:35;22.35;;;12.00;;
23596;SDS011;40226;50.874;4.394;2022-10-31T12:38:08;19.90;;;10.98;;
23596;SDS011;40226;50.874;4.394;2022-10-31T12:46:02;24.77;;;10.10;;
23596;SDS011;40226;50.874;4.394;2022-10-31T12:48:46;24.10;;;10.80;;
23596;SDS011;40226;50.874;4.394;2022-10-31T12:56:50;24.00;;;9.77;;
23596;SDS011;40226;50.874;4.394;2022-10-31T12:59:49;21.73;;;9.38;;
23596;SDS011;40226;50.874;4.394;2022-10-31T13:05:21;17.08;;;8.25;;
23596;SDS011;40226;50.874;4.394;2022-10-31T13:10:34;23.42;;;8.73;;
23596;SDS011;40226;50.874;4.394;2022-10-31T13:13:10;17.85;;;9.35;;
23596;SDS011;40226;50.874;4.394;2022-10-31T13:15:47;19.55;;;8.30;;
23596;SDS011;40226;50.874;4.394;2022-10-31T13:18:22;22.95;;;7.53;;
23596;SDS011;40226;50.874;4.394;2022-10-31T13:20:55;16.17;;;8.20;;
23596;SDS011;40226;50.874;4.394;2022-10-31T13:25:54;14.20;;;7.72;;
23596;SDS011;40226;50.874;4.394;2022-10-31T13:31:02;15.43;;;8.10;;
23596;SDS011;40226;50.874;4.394;2022-10-31T13:41:44;21.77;;;8.77;;
23596;SDS011;40226;50.874;4.394;2022-10-31T13:44:20;16.00;;;8.15;;
23596;SDS011;40226;50.874;4.394;2022-10-31T13:46:51;16.45;;;8.23;;
23596;SDS011;40226;50.874;4.394;2022-10-31T13:54:52;20.98;;;9.02;;
23596;SDS011;40226;50.874;4.394;2022-10-31T13:57:41;18.10;;;8.65;;
23596;SDS011;40226;50.874;4.394;2022-10-31T14:02:47;20.83;;;9.10;;
23596;SDS011;40226;50.874;4.394;2022-10-31T14:05:20;17.15;;;9.23;;
23596;SDS011;40226;50.874;4.394;2022-10-31T14:07:51;16.60;;;9.23;;
23596;SDS011;40226;50.874;4.394;2022-10-31T14:10:25;19.75;;;8.43;;
23596;SDS011;40226;50.874;4.394;2022-10-31T14:13:07;18.65;;;9.05;;
23596;SDS011;40226;50.874;4.394;2022-10-31T14:15:51;22.17;;;10.20;;
23596;SDS011;40226;50.874;4.394;2022-10-31T14:18:24;18.08;;;8.50;;
23596;SDS011;40226;50.874;4.394;2022-10-31T14:20:55;23.05;;;9.02;;
23596;SDS011;40226;50.874;4.394;2022-10-31T14:28:51;15.70;;;6.95;;
23596;SDS011;40226;50.874;4.394;2022-10-31T14:31:29;20.73;;;8.30;;
23596;SDS011;40226;50.874;4.394;2022-10-31T14:39:53;18.67;;;8.20;;
23596;SDS011;40226;50.874;4.394;2022-10-31T14:48:10;25.80;;;8.43;;
23596;SDS011;40226;50.874;4.394;2022-10-31T14:50:56;20.25;;;7.22;;
23596;SDS011;40226;50.874;4.394;2022-10-31T14:53:27;18.85;;;7.38;;
23596;SDS011;40226;50.874;4.394;2022-10-31T14:55:57;14.73;;;7.47;;
23596;SDS011;40226;50.874;4.394;2022-10-31T14:58:28;26.98;;;8.73;;
23596;SDS011;40226;50.874;4.394;2022-10-31T15:01:04;21.20;;;8.68;;
23596;SDS011;40226;50.874;4.394;2022-10-31T15:03:38;20.73;;;7.80;;
23596;SDS011;40226;50.874;4.394;2022-10-31T15:06:10;22.30;;;8.80;;
23596;SDS011;40226;50.874;4.394;2022-10-31T15:08:39;17.67;;;8.88;;
23596;SDS011;40226;50.874;4.394;2022-10-31T15:11:10;19.27;;;8.82;;
23596;SDS011;40226;50.874;4.394;2022-10-31T15:13:44;24.20;;;9.20;;
23596;SDS011;40226;50.874;4.394;2022-10-31T15:16:12;27.45;;;8.80;;
23596;SDS011;40226;50.874;4.394;2022-10-31T15:18:46;23.55;;;9.63;;
23596;SDS011;40226;50.874;4.394;2022-10-31T15:21:32;22.48;;;9.40;;
23596;SDS011;40226;50.874;4.394;2022-10-31T15:23:59;26.95;;;10.50;;
23596;SDS011;40226;50.874;4.394;2022-10-31T15:26:31;23.63;;;10.40;;
23596;SDS011;40226;50.874;4.394;2022-10-31T15:29:04;24.02;;;9.95;;
23596;SDS011;40226;50.874;4.394;2022-10-31T15:31:35;21.67;;;11.13;;
23596;SDS011;40226;50.874;4.394;2022-10-31T15:34:24;27.95;;;11.25;;
23596;SDS011;40226;50.874;4.394;2022-10-31T15:37:03;22.80;;;11.60;;
23596;SDS011;40226;50.874;4.394;2022-10-31T15:39:30;22.25;;;11.95;;
23596;SDS011;40226;50.874;4.394;2022-10-31T15:41:57;29.50;;;12.60;;
23596;SDS011;40226;50.874;4.394;2022-10-31T15:44:33;25.35;;;11.40;;
23596;SDS011;40226;50.874;4.394;2022-10-31T15:47:06;30.00;;;13.35;;
23596;SDS011;40226;50.874;4.394;2022-10-31T15:49:42;30.25;;;11.90;;
23596;SDS011;40226;50.874;4.394;2022-10-31T15:54:53;26.45;;;13.77;;
23596;SDS011;40226;50.874;4.394;2022-10-31T15:57:24;30.25;;;13.50;;
23596;SDS011;40226;50.874;4.394;2022-10-31T15:59:51;32.05;;;14.13;;
23596;SDS011;40226;50.874;4.394;2022-10-31T16:02:21;29.60;;;13.88;;
23596;SDS011;40226;50.874;4.394;2022-10-31T16:04:50;31.73;;;14.82;;
23596;SDS011;40226;50.874;4.394;2022-10-31T16:07:22;25.15;;;14.30;;
23596;SDS011;40226;50.874;4.394;2022-10-31T16:09:58;29.92;;;15.10;;
23596;SDS011;40226;50.874;4.394;2022-10-31T16:12:28;32.72;;;15.93;;
23596;SDS011;40226;50.874;4.394;2022-10-31T16:14:59;34.00;;;14.50;;
23596;SDS011;40226;50.874;4.394;2022-10-31T16:17:25;30.15;;;14.60;;
23596;SDS011;40226;50.874;4.394;2022-10-31T16:20:02;30.13;;;14.98;;
23596;SDS011;40226;50.874;4.394;2022-10-31T16:22:33;32.75;;;15.45;;
23596;SDS011;40226;50.874;4.394;2022-10-31T16:27:27;28.27;;;15.82;;
23596;SDS011;40226;50.874;4.394;2022-10-31T16:29:56;37.88;;;17.77;;
23596;SDS011;40226;50.874;4.394;2022-10-31T16:35:01;32.13;;;16.67;;
23596;SDS011;40226;50.874;4.394;2022-10-31T16:37:43;31.10;;;15.57;;
23596;SDS011;40226;50.874;4.394;2022-10-31T16:40:10;34.30;;;16.33;;
23596;SDS011;40226;50.874;4.394;2022-10-31T16:42:40;40.90;;;18.98;;
23596;SDS011;40226;50.874;4.394;2022-10-31T16:45:06;40.85;;;18.42;;
23596;SDS011;40226;50.874;4.394;2022-10-31T16:47:33;48.40;;;17.98;;
23596;SDS011;40226;50.874;4.394;2022-10-31T16:49:58;41.22;;;16.95;;
23596;SDS011;40226;50.874;4.394;2022-10-31T16:52:25;39.88;;;16.23;;
23596;SDS011;40226;50.874;4.394;2022-10-31T16:54:51;41.55;;;17.10;;
23596;SDS011;40226;50.874;4.394;2022-10-31T16:57:27;34.28;;;14.77;;
23596;SDS011;40226;50.874;4.394;2022-10-31T16:59:55;37.53;;;14.70;;
23596;SDS011;40226;50.874;4.394;2022-10-31T17:02:22;36.53;;;14.52;;
23596;SDS011;40226;50.874;4.394;2022-10-31T17:04:48;31.13;;;14.35;;
23596;SDS011;40226;50.874;4.394;2022-10-31T17:07:14;27.67;;;13.70;;
23596;SDS011;40226;50.874;4.394;2022-10-31T17:09:39;25.63;;;11.60;;
23596;SDS011;40226;50.874;4.394;2022-10-31T17:12:05;28.15;;;12.82;;
23596;SDS011;40226;50.874;4.394;2022-10-31T17:14:38;20.58;;;11.90;;
23596;SDS011;40226;50.874;4.394;2022-10-31T17:17:04;26.40;;;12.55;;
23596;SDS011;40226;50.874;4.394;2022-10-31T17:19:29;23.58;;;11.02;;
23596;SDS011;40226;50.874;4.394;2022-10-31T17:21:55;25.30;;;11.55;;
23596;SDS011;40226;50.874;4.394;2022-10-31T17:24:21;22.45;;;9.93;;
23596;SDS011;40226;50.874;4.394;2022-10-31T17:26:46;18.23;;;9.90;;
23596;SDS011;40226;50.874;4.394;2022-10-31T17:29:12;24.70;;;10.63;;
23596;SDS011;40226;50.874;4.394;2022-10-31T17:31:38;22.65;;;10.23;;
23596;SDS011;40226;50.874;4.394;2022-10-31T17:34:03;22.05;;;9.05;;